Time;durP1;ratioP1;P1;durP2;ratioP2;P2;SDS_P1;SDS_P2;PMS_P1;PMS_P2;Temp;Humidity;BMP_temperature;BMP_pressure;BME280_temperature;BME280_humidity;BME280_pressure;Samples;Min_cycle;Max_cycle;Signal;HPM_P1;HPM_P2
2020/12/26 00:02:30;;;;;;;26.87;18.23;;;;;;;3.15;100.00;101042.22;5044718;28;20315;-31
2020/12/26 00:05:17;;;;;;;26.73;19.60;;;;;;;3.16;100.00;101052.50;5046385;28;20197;-32
2020/12/26 00:08:03;;;;;;;24.33;18.70;;;;;;;3.30;100.00;101045.28;5044481;28;20208;-31
2020/12/26 00:10:49;;;;;;;32.37;18.60;;;;;;;3.19;100.00;101054.28;5044715;28;20610;-31
2020/12/26 00:13:36;;;;;;;28.77;20.27;;;;;;;3.44;100.00;101057.69;5044182;28;20196;-31
2020/12/26 00:16:22;;;;;;;25.97;18.03;;;;;;;3.18;100.00;101063.66;5048582;28;20287;-31
2020/12/26 00:19:09;;;;;;;26.00;17.60;;;;;;;3.03;100.00;101065.66;5044934;28;20256;-32
2020/12/26 00:21:56;;;;;;;24.13;17.30;;;;;;;3.16;100.00;101065.28;5044045;28;20705;-31
2020/12/26 00:24:41;;;;;;;25.33;17.27;;;;;;;3.32;100.00;101064.09;5045139;28;20240;-31
2020/12/26 00:27:28;;;;;;;31.33;17.03;;;;;;;3.36;100.00;101055.72;5044589;28;20204;-31
2020/12/26 00:30:15;;;;;;;22.80;15.87;;;;;;;3.33;100.00;101064.16;5044795;28;20201;-31
2020/12/26 00:33:01;;;;;;;23.67;14.63;;;;;;;3.45;100.00;101058.56;5044696;28;20240;-31
2020/12/26 00:35:47;;;;;;;23.33;15.87;;;;;;;3.47;100.00;101056.94;5044781;28;20247;-31
2020/12/26 00:38:33;;;;;;;22.13;15.43;;;;;;;3.31;100.00;101050.44;5044705;28;20491;-31
2020/12/26 00:41:19;;;;;;;26.27;16.50;;;;;;;3.47;100.00;101039.03;5045381;28;20200;-31
2020/12/26 00:44:06;;;;;;;19.40;14.83;;;;;;;3.50;100.00;101051.91;5041807;28;20344;-32
2020/12/26 00:46:52;;;;;;;21.43;14.80;;;;;;;3.39;100.00;101053.28;5050852;28;20197;-31
2020/12/26 00:49:54;;;;;;;29.73;16.37;;;;;;;3.36;100.00;101053.16;5041273;28;20197;-31
2020/12/26 00:52:40;;;;;;;22.53;15.57;;;;;;;3.35;100.00;101047.19;5050564;28;20195;-31
2020/12/26 00:55:27;;;;;;;24.20;16.23;;;;;;;3.53;100.00;101049.47;5062711;28;20223;-31
2020/12/26 00:58:13;;;;;;;21.90;16.13;;;;;;;3.50;100.00;101043.38;5061071;28;20205;-31
2020/12/26 01:01:00;;;;;;;23.43;16.20;;;;;;;3.46;100.00;101048.38;5061034;28;20212;-31
2020/12/26 01:03:49;;;;;;;25.77;15.90;;;;;;;3.25;100.00;101049.38;5062723;28;20291;-31
2020/12/26 01:06:35;;;;;;;22.87;16.00;;;;;;;3.31;100.00;101049.56;5061073;28;20217;-31
2020/12/26 01:09:21;;;;;;;26.23;15.63;;;;;;;3.30;100.00;101048.72;5060207;28;20200;-31
2020/12/26 01:12:09;;;;;;;27.50;17.20;;;;;;;3.49;100.00;101059.53;5060143;28;20200;-31
2020/12/26 01:14:55;;;;;;;23.67;16.97;;;;;;;3.24;100.00;101062.97;5060733;28;20536;-31
2020/12/26 01:17:42;;;;;;;22.53;17.80;;;;;;;3.29;100.00;101051.22;5063071;28;20208;-31
2020/12/26 01:20:28;;;;;;;23.30;15.73;;;;;;;3.41;100.00;101047.34;5061023;28;20287;-31
2020/12/26 01:23:14;;;;;;;23.77;15.67;;;;;;;3.62;100.00;101043.75;5060946;28;20224;-31
2020/12/26 01:26:00;;;;;;;20.50;16.00;;;;;;;3.46;100.00;101037.28;5060306;28;20224;-31
2020/12/26 01:28:47;;;;;;;22.20;15.77;;;;;;;3.47;100.00;101036.47;5060451;28;20589;-31
2020/12/26 01:31:33;;;;;;;22.17;17.33;;;;;;;3.58;100.00;101045.38;5061019;28;20197;-31
2020/12/26 01:34:21;;;;;;;19.83;16.73;;;;;;;3.54;100.00;101050.34;5060886;28;20200;-31
2020/12/26 01:37:08;;;;;;;22.07;16.33;;;;;;;3.49;100.00;101064.66;5060241;28;20598;-31
2020/12/26 01:39:53;;;;;;;22.63;17.00;;;;;;;3.49;100.00;101052.72;5060443;28;20307;-31
2020/12/26 01:42:39;;;;;;;25.37;17.40;;;;;;;3.29;100.00;101061.44;5062120;28;20228;-31
2020/12/26 01:45:25;;;;;;;27.40;18.90;;;;;;;3.42;100.00;101061.00;5060363;28;20197;-31
2020/12/26 01:48:16;;;;;;;23.73;17.00;;;;;;;3.59;100.00;101065.03;5060365;28;20196;-31
2020/12/26 01:51:02;;;;;;;26.13;17.67;;;;;;;3.54;100.00;101061.44;5059956;28;20286;-31
2020/12/26 01:53:49;;;;;;;19.70;13.80;;;;;;;3.52;100.00;101065.63;5059272;28;20251;-32
2020/12/26 01:56:35;;;;;;;24.63;14.77;;;;;;;3.40;100.00;101067.75;5060803;28;20605;-31
2020/12/26 01:59:21;;;;;;;23.10;16.37;;;;;;;3.31;100.00;101065.78;5068810;28;20560;-31
2020/12/26 02:02:09;;;;;;;24.50;17.07;;;;;;;3.36;100.00;101058.28;5061212;28;20368;-31
2020/12/26 02:04:56;;;;;;;22.90;17.17;;;;;;;3.30;100.00;101060.63;5059572;28;20196;-31
2020/12/26 02:07:44;;;;;;;21.13;15.60;;;;;;;3.19;100.00;101064.53;5059508;28;20212;-31
2020/12/26 02:10:32;;;;;;;21.63;15.27;;;;;;;3.29;100.00;101064.00;5059715;28;20263;-31
2020/12/26 02:13:18;;;;;;;20.77;15.27;;;;;;;3.24;100.00;101062.97;5059753;28;20531;-31
2020/12/26 02:16:05;;;;;;;25.00;15.67;;;;;;;3.18;100.00;101061.09;5059443;28;20252;-31
2020/12/26 02:18:51;;;;;;;24.87;16.17;;;;;;;3.28;100.00;101068.22;5063090;28;20204;-31
2020/12/26 02:21:39;;;;;;;17.80;14.73;;;;;;;3.35;100.00;101066.75;5058971;28;20205;-31
2020/12/26 02:24:25;;;;;;;25.63;15.33;;;;;;;3.26;100.00;101061.31;5058395;28;20295;-31
2020/12/26 02:27:11;;;;;;;18.13;13.83;;;;;;;3.31;100.00;101067.47;5058406;28;20495;-31
2020/12/26 02:29:57;;;;;;;18.97;13.93;;;;;;;3.25;100.00;101063.00;5058708;28;20239;-31
2020/12/26 02:32:43;;;;;;;21.50;15.47;;;;;;;3.31;100.00;101059.81;5059082;28;20195;-31
2020/12/26 02:35:29;;;;;;;19.00;13.30;;;;;;;3.45;100.00;101059.44;5068372;28;20296;-31
2020/12/26 02:38:14;;;;;;;21.57;13.93;;;;;;;3.21;100.00;101065.41;5064245;28;20594;-31
2020/12/26 02:41:01;;;;;;;21.70;13.83;;;;;;;3.39;100.00;101066.06;5059256;28;20208;-31
2020/12/26 02:43:47;;;;;;;24.73;13.30;;;;;;;3.54;100.00;101065.69;5058082;28;20243;-31
2020/12/26 02:46:34;;;;;;;18.30;13.53;;;;;;;3.49;100.00;101064.66;5058319;28;20282;-31
2020/12/26 02:49:20;;;;;;;26.70;13.80;;;;;;;3.52;100.00;101064.75;5059183;28;20288;-31
2020/12/26 02:52:05;;;;;;;16.23;13.63;;;;;;;3.52;100.00;101055.41;5060448;28;20204;-32
2020/12/26 02:54:51;;;;;;;18.70;13.73;;;;;;;3.48;100.00;101058.66;5058326;28;20200;-31
2020/12/26 02:57:38;;;;;;;19.20;13.70;;;;;;;3.43;100.00;101058.50;5058691;28;20294;-31
2020/12/26 03:00:24;;;;;;;22.00;12.63;;;;;;;3.41;100.00;101051.59;5059648;28;20254;-32
2020/12/26 03:03:10;;;;;;;21.63;14.17;;;;;;;3.49;100.00;101051.88;5058604;28;20231;-31
2020/12/26 03:05:59;;;;;;;21.37;13.43;;;;;;;3.29;100.00;101048.66;5057998;28;20196;-31
2020/12/26 03:08:45;;;;;;;19.53;12.50;;;;;;;3.62;100.00;101042.06;5062045;28;20197;-32
2020/12/26 03:11:32;;;;;;;18.63;12.67;;;;;;;3.56;100.00;101038.47;5064364;28;20273;-32
2020/12/26 03:14:19;;;;;;;16.57;12.33;;;;;;;3.17;100.00;101038.03;5058956;28;20192;-32
2020/12/26 03:17:05;;;;;;;20.10;13.67;;;;;;;3.42;100.00;101035.44;5058238;28;20674;-31
2020/12/26 03:19:51;;;;;;;18.70;12.33;;;;;;;3.69;100.00;101030.34;5058451;28;20603;-32
2020/12/26 03:22:37;;;;;;;17.43;12.93;;;;;;;3.56;100.00;101035.91;5060980;28;20228;-32
2020/12/26 03:25:23;;;;;;;23.30;13.37;;;;;;;3.44;100.00;101032.13;5058952;28;20236;-32
2020/12/26 03:28:09;;;;;;;19.37;13.33;;;;;;;3.35;100.00;101025.84;5057872;28;20298;-32
2020/12/26 03:30:56;;;;;;;20.23;13.60;;;;;;;3.33;100.00;101018.13;5059691;28;20611;-32
2020/12/26 03:33:42;;;;;;;19.57;13.77;;;;;;;3.28;100.00;101029.00;5059746;28;20259;-32
2020/12/26 03:36:29;;;;;;;20.33;14.00;;;;;;;3.24;100.00;101032.28;5058093;28;20268;-32
2020/12/26 03:39:16;;;;;;;20.87;14.10;;;;;;;3.24;100.00;101027.16;5064692;28;20196;-31
2020/12/26 03:42:02;;;;;;;25.30;16.57;;;;;;;3.06;100.00;101027.44;5057708;28;20200;-32
2020/12/26 03:44:49;;;;;;;23.77;16.30;;;;;;;3.43;100.00;101024.41;5057972;28;20201;-32
2020/12/26 03:47:36;;;;;;;26.67;17.80;;;;;;;3.20;100.00;101031.31;5059255;28;20715;-31
2020/12/26 03:50:22;;;;;;;27.27;17.20;;;;;;;3.17;100.00;101032.91;5057806;28;20479;-31
2020/12/26 03:53:09;;;;;;;27.50;17.67;;;;;;;2.82;100.00;101018.91;5057796;28;20196;-31
2020/12/26 03:55:55;;;;;;;31.80;18.40;;;;;;;2.81;100.00;101017.19;5057409;28;20476;-31
2020/12/26 03:58:43;;;;;;;30.67;19.97;;;;;;;3.18;100.00;101019.31;5057716;28;20200;-31
2020/12/26 04:01:30;;;;;;;29.37;20.30;;;;;;;3.11;100.00;101020.78;5056892;28;20595;-31
2020/12/26 04:04:17;;;;;;;38.03;20.70;;;;;;;3.17;100.00;101025.25;5057878;28;20630;-31
2020/12/26 04:07:03;;;;;;;35.27;21.03;;;;;;;3.41;100.00;101016.66;5059195;28;20200;-31
2020/12/26 04:09:50;;;;;;;30.77;20.73;;;;;;;3.20;100.00;101015.97;5061640;28;20613;-31
2020/12/26 04:12:36;;;;;;;35.47;21.73;;;;;;;2.98;100.00;101005.88;5057972;28;20677;-31
2020/12/26 04:15:22;;;;;;;35.37;22.23;;;;;;;3.21;100.00;101001.50;5063453;28;20229;-31
2020/12/26 04:18:09;;;;;;;30.77;21.07;;;;;;;2.99;100.00;101005.94;5060725;28;20205;-31
2020/12/26 04:20:56;;;;;;;34.70;21.80;;;;;;;3.07;100.00;100998.50;5061613;28;20212;-31
2020/12/26 04:23:42;;;;;;;37.20;20.87;;;;;;;2.96;100.00;100993.03;5062033;28;20221;-32
2020/12/26 04:26:28;;;;;;;28.20;20.80;;;;;;;2.95;100.00;100993.00;5062822;28;20200;-31
2020/12/26 04:29:14;;;;;;;29.13;21.10;;;;;;;3.13;100.00;100997.84;5062396;28;20244;-31
2020/12/26 04:32:01;;;;;;;29.73;21.40;;;;;;;3.11;100.00;101006.34;5060498;28;20200;-31
2020/12/26 04:34:47;;;;;;;35.63;22.97;;;;;;;3.08;100.00;101006.22;5061048;28;20332;-31
2020/12/26 04:37:35;;;;;;;36.03;21.33;;;;;;;3.10;100.00;100999.47;5061635;28;20664;-32
2020/12/26 04:40:22;;;;;;;27.10;20.53;;;;;;;3.14;100.00;100991.91;5061585;28;20200;-31
2020/12/26 04:43:09;;;;;;;30.00;20.53;;;;;;;3.29;100.00;100989.84;5062169;28;20228;-31
2020/12/26 04:45:56;;;;;;;34.47;22.93;;;;;;;3.15;100.00;100980.88;5070671;28;20471;-32
2020/12/26 04:48:50;;;;;;;26.43;20.53;;;;;;;3.19;100.00;100977.59;5061548;28;20208;-31
2020/12/26 04:51:46;;;;;;;34.80;21.47;;;;;;;3.25;100.00;100976.09;5061750;28;20776;-33
2020/12/26 04:54:54;;;;;;;28.40;20.60;;;;;;;2.96;100.00;100971.75;5059674;28;20204;-32
2020/12/26 04:57:48;;;;;;;29.50;21.00;;;;;;;3.27;100.00;100971.03;5061620;28;20251;-31
2020/12/26 05:00:36;;;;;;;27.10;21.17;;;;;;;3.09;100.00;100967.06;5060881;28;20196;-31
2020/12/26 05:03:26;;;;;;;29.93;21.30;;;;;;;3.14;100.00;100969.78;5060994;28;20227;-32
2020/12/26 05:06:14;;;;;;;34.33;21.67;;;;;;;3.19;100.00;100972.50;5059983;28;20203;-31
2020/12/26 05:09:00;;;;;;;31.27;19.93;;;;;;;3.35;100.00;100961.94;5060378;28;20296;-32
2020/12/26 05:11:56;;;;;;;31.37;20.20;;;;;;;3.17;100.00;100962.22;5073560;28;20220;-32
2020/12/26 05:14:42;;;;;;;32.33;20.50;;;;;;;3.33;100.00;100948.22;5060591;28;20201;-32
2020/12/26 05:17:28;;;;;;;30.33;21.33;;;;;;;3.35;100.00;100950.03;5062362;28;20197;-31
2020/12/26 05:20:14;;;;;;;26.07;21.00;;;;;;;3.41;100.00;100957.84;5060987;28;20200;-31
2020/12/26 05:23:08;;;;;;;27.40;21.07;;;;;;;3.41;100.00;100955.31;5061755;28;20235;-31
2020/12/26 05:25:55;;;;;;;32.57;21.93;;;;;;;3.28;100.00;100952.31;5059725;28;20217;-31
2020/12/26 05:28:43;;;;;;;31.27;20.97;;;;;;;3.27;100.00;100948.03;5059274;28;20197;-31
2020/12/26 05:31:53;;;;;;;33.40;20.30;;;;;;;3.51;100.00;100951.34;5060710;28;20200;-32
2020/12/26 05:34:39;;;;;;;30.83;21.60;;;;;;;3.43;100.00;100940.88;5059536;28;20430;-31
2020/12/26 05:37:30;;;;;;;28.20;21.63;;;;;;;3.11;100.00;100942.44;5059166;28;20484;-31
2020/12/26 05:40:22;;;;;;;34.13;22.00;;;;;;;3.44;100.00;100939.19;5059515;28;20406;-31
2020/12/26 05:43:08;;;;;;;27.40;21.47;;;;;;;3.36;100.00;100940.66;5064488;28;20224;-31
2020/12/26 05:45:55;;;;;;;30.90;23.40;;;;;;;3.20;100.00;100938.44;5059901;28;20195;-31
2020/12/26 05:48:41;;;;;;;28.50;21.77;;;;;;;3.24;100.00;100942.81;5061887;28;20307;-31
2020/12/26 05:51:27;;;;;;;33.10;24.07;;;;;;;3.43;100.00;100932.34;5059837;28;20212;-31
2020/12/26 05:54:16;;;;;;;34.83;23.67;;;;;;;3.30;100.00;100933.66;5058690;28;20191;-31
2020/12/26 05:57:13;;;;;;;36.80;23.80;;;;;;;3.58;100.00;100934.53;5058929;28;20293;-31
2020/12/26 05:59:59;;;;;;;30.60;23.87;;;;;;;3.53;100.00;100929.25;5058882;28;20351;-31
2020/12/26 06:02:46;;;;;;;28.83;23.17;;;;;;;3.16;100.00;100917.03;5063570;28;20274;-31
2020/12/26 06:05:33;;;;;;;34.43;21.90;;;;;;;3.18;100.00;100910.28;5060867;28;20293;-31
2020/12/26 06:08:20;;;;;;;27.03;22.37;;;;;;;3.29;100.00;100919.13;5059671;28;20476;-31
2020/12/26 06:11:07;;;;;;;31.57;21.13;;;;;;;3.11;100.00;100923.69;5061673;28;20262;-31
2020/12/26 06:13:54;;;;;;;29.67;22.30;;;;;;;3.34;100.00;100919.28;5059371;28;20268;-31
2020/12/26 06:16:44;;;;;;;28.17;22.07;;;;;;;3.45;100.00;100916.22;5061679;28;20205;-31
2020/12/26 06:19:31;;;;;;;25.73;21.00;;;;;;;3.19;100.00;100911.16;5059759;28;20351;-31
2020/12/26 06:22:17;;;;;;;33.20;23.13;;;;;;;3.33;100.00;100920.09;5058636;28;20191;-31
2020/12/26 06:25:03;;;;;;;26.53;20.50;;;;;;;3.35;100.00;100915.91;5058305;28;20228;-31
2020/12/26 06:28:23;;;;;;;30.70;21.20;;;;;;;3.47;100.00;100921.38;5058405;28;20200;-31
2020/12/26 06:31:14;;;;;;;27.47;20.90;;;;;;;3.23;100.00;100918.94;5059083;28;20192;-31
2020/12/26 06:34:01;;;;;;;26.63;20.30;;;;;;;3.21;100.00;100915.47;5058596;28;20596;-31
2020/12/26 06:36:54;;;;;;;26.80;20.47;;;;;;;3.43;100.00;100919.56;5059603;28;20648;-31
2020/12/26 06:39:40;;;;;;;30.07;21.97;;;;;;;3.43;100.00;100920.44;5062594;28;20199;-32
2020/12/26 06:42:28;;;;;;;27.93;22.13;;;;;;;3.21;100.00;100920.56;5058070;28;20535;-31
2020/12/26 06:45:30;;;;;;;26.07;20.57;;;;;;;3.41;100.00;100919.50;5061009;28;20200;-32
2020/12/26 06:48:34;;;;;;;27.57;22.17;;;;;;;3.38;100.00;100928.78;5060212;28;20219;-32
2020/12/26 06:51:23;;;;;;;30.20;22.60;;;;;;;3.59;100.00;100924.34;5058671;28;20482;-31
2020/12/26 06:54:12;;;;;;;29.47;21.47;;;;;;;3.50;100.00;100923.19;5058317;28;20215;-31
2020/12/26 06:56:58;;;;;;;35.13;22.03;;;;;;;3.45;100.00;100921.34;5058444;28;20255;-31
2020/12/26 06:59:44;;;;;;;28.57;22.87;;;;;;;3.59;100.00;100919.22;5058674;28;20196;-31
2020/12/26 07:02:29;;;;;;;32.93;22.43;;;;;;;3.45;100.00;100923.03;5058671;28;20597;-31
2020/12/26 07:05:40;;;;;;;27.37;21.53;;;;;;;3.44;100.00;100923.84;5058056;28;20196;-31
2020/12/26 07:08:31;;;;;;;31.53;21.80;;;;;;;3.44;100.00;100932.38;5058407;28;20236;-30
2020/12/26 07:11:25;;;;;;;31.30;22.37;;;;;;;3.66;100.00;100931.34;5065154;28;20196;-31
2020/12/26 07:14:29;;;;;;;32.00;23.43;;;;;;;3.65;100.00;100938.97;5062358;28;20196;-31
2020/12/26 07:17:26;;;;;;;31.40;23.03;;;;;;;3.81;100.00;100934.34;5062782;28;20204;-31
2020/12/26 07:20:27;;;;;;;35.33;23.13;;;;;;;3.79;100.00;100938.59;5059339;28;20256;-31
2020/12/26 07:23:13;;;;;;;29.37;23.27;;;;;;;3.71;100.00;100937.47;5058503;28;20263;-31
2020/12/26 07:25:59;;;;;;;34.87;23.47;;;;;;;3.61;100.00;100937.16;5058243;28;20269;-31
2020/12/26 07:28:47;;;;;;;35.07;23.17;;;;;;;3.67;100.00;100943.31;5058088;28;20199;-30
2020/12/26 07:31:47;;;;;;;34.57;24.30;;;;;;;3.58;100.00;100950.75;5057910;28;20204;-31
2020/12/26 07:34:38;;;;;;;33.10;23.20;;;;;;;3.62;100.00;100944.00;5059832;28;20278;-31
2020/12/26 07:37:24;;;;;;;35.10;24.27;;;;;;;3.74;100.00;100950.38;5058847;28;20204;-32
2020/12/26 07:40:16;;;;;;;34.30;25.13;;;;;;;3.80;100.00;100950.53;5058183;28;20217;-32
2020/12/26 07:43:04;;;;;;;33.60;24.33;;;;;;;3.72;100.00;100949.44;5057830;28;20627;-32
2020/12/26 07:45:55;;;;;;;31.27;24.13;;;;;;;3.88;100.00;100948.22;5061473;28;20200;-32
2020/12/26 07:48:41;;;;;;;35.87;25.57;;;;;;;3.80;100.00;100944.53;5059063;28;20262;-32
2020/12/26 07:51:27;;;;;;;33.00;26.30;;;;;;;3.69;100.00;100953.59;5057837;28;20208;-32
2020/12/26 07:54:26;;;;;;;39.37;27.10;;;;;;;3.48;100.00;100946.16;5068325;28;20280;-31
2020/12/26 07:57:20;;;;;;;37.97;25.93;;;;;;;3.75;100.00;100944.44;5064718;28;20496;-31
2020/12/26 08:00:06;;;;;;;35.37;27.67;;;;;;;3.39;100.00;100946.75;5062517;28;20197;-30
2020/12/26 08:02:54;;;;;;;46.10;27.20;;;;;;;3.83;100.00;100943.78;5061766;28;20196;-32
2020/12/26 08:05:41;;;;;;;36.97;26.27;;;;;;;3.53;100.00;100938.63;5061799;28;20486;-31
2020/12/26 08:08:27;;;;;;;40.30;28.00;;;;;;;3.50;100.00;100936.84;5064434;28;20541;-31
2020/12/26 08:11:22;;;;;;;38.50;26.27;;;;;;;3.68;100.00;100957.84;5064233;28;20197;-31
2020/12/26 08:14:09;;;;;;;40.43;27.03;;;;;;;3.61;100.00;100950.81;5061727;28;20311;-31
2020/12/26 08:16:56;;;;;;;38.20;27.33;;;;;;;3.65;100.00;100959.44;5064622;28;20200;-31
2020/12/26 08:19:43;;;;;;;36.03;26.50;;;;;;;3.85;100.00;100966.03;5062214;28;20273;-31
2020/12/26 08:22:29;;;;;;;44.17;28.53;;;;;;;3.90;100.00;100961.06;5062720;28;20204;-31
2020/12/26 08:25:18;;;;;;;38.67;27.23;;;;;;;3.85;100.00;100967.72;5061457;28;20236;-31
2020/12/26 08:28:05;;;;;;;42.17;27.87;;;;;;;3.91;100.00;100967.91;5062535;28;20224;-31
2020/12/26 08:30:55;;;;;;;43.63;28.90;;;;;;;4.03;100.00;100963.13;5061769;28;20194;-31
2020/12/26 08:33:47;;;;;;;46.77;29.57;;;;;;;4.17;100.00;100958.44;5064048;28;20197;-31
2020/12/26 08:36:38;;;;;;;45.23;28.20;;;;;;;4.08;100.00;100974.38;5063352;28;20197;-31
2020/12/26 08:39:26;;;;;;;47.40;29.17;;;;;;;4.15;100.00;100973.75;5061894;28;20395;-31
2020/12/26 08:42:18;;;;;;;49.30;32.67;;;;;;;4.10;100.00;100978.72;5062833;28;20205;-31
2020/12/26 08:45:24;;;;;;;41.23;28.20;;;;;;;4.26;100.00;100969.78;5062420;28;20248;-31
2020/12/26 08:48:15;;;;;;;44.13;29.57;;;;;;;4.26;100.00;100976.59;5062074;28;20217;-32
2020/12/26 08:51:01;;;;;;;44.83;29.43;;;;;;;4.27;100.00;100968.09;5062514;28;20216;-32
2020/12/26 08:53:51;;;;;;;44.60;28.50;;;;;;;4.08;100.00;100967.56;5064898;28;20203;-32
2020/12/26 08:56:41;;;;;;;39.20;27.10;;;;;;;4.35;100.00;100954.69;5062191;28;20604;-33
2020/12/26 08:59:29;;;;;;;38.73;26.57;;;;;;;4.11;100.00;100951.44;5062610;28;20261;-31
2020/12/26 09:02:15;;;;;;;40.87;27.73;;;;;;;4.05;100.00;100953.81;5064576;28;20500;-31
2020/12/26 09:05:20;;;;;;;40.10;26.57;;;;;;;4.45;100.00;100954.09;5061814;28;20515;-31
2020/12/26 09:08:09;;;;;;;39.50;26.90;;;;;;;4.19;100.00;100951.66;5062610;28;20220;-31
2020/12/26 09:11:02;;;;;;;39.97;28.70;;;;;;;4.33;100.00;100950.34;5062094;28;20198;-31
2020/12/26 09:13:49;;;;;;;37.73;26.97;;;;;;;4.32;100.00;100957.16;5061810;28;20341;-31
2020/12/26 09:16:35;;;;;;;38.00;26.77;;;;;;;3.96;100.00;100951.00;5063168;28;20304;-32
2020/12/26 09:19:21;;;;;;;38.27;26.73;;;;;;;4.25;100.00;100950.13;5061883;28;20313;-31
2020/12/26 09:22:08;;;;;;;39.13;27.00;;;;;;;4.25;100.00;100954.38;5067996;28;20197;-31
2020/12/26 09:24:54;;;;;;;40.00;27.57;;;;;;;4.45;100.00;100961.78;5061642;28;20229;-31
2020/12/26 09:27:41;;;;;;;33.83;24.87;;;;;;;4.13;100.00;100955.78;5069450;28;20277;-31
2020/12/26 09:30:27;;;;;;;34.17;24.70;;;;;;;4.34;100.00;100959.75;5062016;28;20272;-31
2020/12/26 09:33:13;;;;;;;31.90;23.30;;;;;;;4.42;100.00;100948.88;5060996;28;20202;-33
2020/12/26 09:36:03;;;;;;;30.80;23.53;;;;;;;4.62;100.00;100951.13;5062154;28;20265;-30
2020/12/26 09:38:51;;;;;;;33.77;23.17;;;;;;;4.64;100.00;100955.44;5061744;28;20197;-31
2020/12/26 09:41:45;;;;;;;34.20;23.33;;;;;;;4.50;100.00;100956.78;5062832;28;20214;-33
2020/12/26 09:44:32;;;;;;;29.40;22.47;;;;;;;4.44;100.00;100947.25;5061757;28;20242;-31
2020/12/26 09:47:20;;;;;;;27.43;22.03;;;;;;;4.60;100.00;100948.50;5065274;28;20611;-32
2020/12/26 09:50:05;;;;;;;30.77;22.30;;;;;;;4.28;100.00;100929.72;5061891;28;20766;-32
2020/12/26 09:52:52;;;;;;;37.90;21.43;;;;;;;4.65;100.00;100936.69;5062184;28;20511;-33
2020/12/26 09:55:46;;;;;;;26.00;18.70;;;;;;;4.73;100.00;100931.78;5064694;28;20200;-31
2020/12/26 09:58:32;;;;;;;26.33;19.70;;;;;;;5.09;100.00;100925.00;5059428;28;20231;-31
2020/12/26 10:01:28;;;;;;;25.60;18.63;;;;;;;4.87;100.00;100917.59;5061105;28;20243;-33
2020/12/26 10:04:27;;;;;;;26.73;19.53;;;;;;;5.00;100.00;100913.63;5061453;28;20231;-34
2020/12/26 10:07:20;;;;;;;28.83;19.87;;;;;;;4.78;100.00;100914.84;5064136;28;20221;-32
2020/12/26 10:10:06;;;;;;;25.63;17.50;;;;;;;5.06;100.00;100919.78;5061238;28;20196;-32
2020/12/26 10:12:52;;;;;;;24.07;18.67;;;;;;;4.93;100.00;100919.47;5061876;28;20202;-32
2020/12/26 10:15:41;;;;;;;22.80;16.60;;;;;;;4.69;100.00;100907.75;5062329;28;20484;-32
2020/12/26 10:18:28;;;;;;;28.27;18.37;;;;;;;4.75;100.00;100910.50;5063374;28;20620;-32
2020/12/26 10:21:15;;;;;;;24.43;16.17;;;;;;;4.66;100.00;100887.19;5061168;28;20271;-32
2020/12/26 10:24:01;;;;;;;21.23;15.50;;;;;;;4.87;100.00;100897.09;5060624;28;20684;-32
2020/12/26 10:26:48;;;;;;;18.00;13.70;;;;;;;5.07;100.00;100890.75;5061843;28;20201;-32
2020/12/26 10:29:34;;;;;;;18.07;15.73;;;;;;;5.61;100.00;100890.25;5062485;28;20211;-32
2020/12/26 10:32:19;;;;;;;15.87;12.93;;;;;;;5.35;100.00;100886.28;5061162;28;20203;-32
2020/12/26 10:35:24;;;;;;;19.47;13.07;;;;;;;5.31;100.00;100887.03;5061292;28;20258;-32
2020/12/26 10:38:13;;;;;;;21.40;13.00;;;;;;;5.16;100.00;100869.59;5060825;28;20197;-32
2020/12/26 10:40:59;;;;;;;18.10;12.73;;;;;;;5.08;100.00;100866.84;5062039;28;20261;-32
2020/12/26 10:43:46;;;;;;;17.07;12.83;;;;;;;5.13;100.00;100860.13;5062754;28;20231;-32
2020/12/26 10:46:39;;;;;;;17.13;13.93;;;;;;;5.63;100.00;100847.53;5065754;28;20611;-32
2020/12/26 10:49:26;;;;;;;14.87;12.53;;;;;;;6.11;100.00;100842.53;5062259;28;20199;-32
2020/12/26 10:52:13;;;;;;;13.40;11.63;;;;;;;6.64;100.00;100841.75;5058961;28;20195;-36
2020/12/26 10:54:59;;;;;;;14.50;10.83;;;;;;;6.07;100.00;100843.31;5058487;28;20216;-30
2020/12/26 10:57:46;;;;;;;13.60;10.57;;;;;;;6.18;100.00;100833.25;5059118;28;20196;-33
2020/12/26 11:00:32;;;;;;;11.53;10.13;;;;;;;5.80;100.00;100835.03;5059136;28;20637;-30
2020/12/26 11:03:18;;;;;;;14.83;10.57;;;;;;;5.88;100.00;100834.41;5058942;28;20595;-31
2020/12/26 11:06:04;;;;;;;12.90;10.67;;;;;;;5.84;100.00;100829.13;5059070;28;20286;-32
2020/12/26 11:08:50;;;;;;;17.33;10.43;;;;;;;6.25;100.00;100831.63;5058522;28;20200;-32
2020/12/26 11:11:46;;;;;;;12.53;10.43;;;;;;;5.26;100.00;100827.94;5058974;28;20622;-32
2020/12/26 11:14:32;;;;;;;15.83;11.30;;;;;;;5.42;100.00;100826.56;5059520;28;20252;-33
2020/12/26 11:17:18;;;;;;;15.17;10.37;;;;;;;5.11;100.00;100817.34;5059266;28;20204;-32
2020/12/26 11:20:04;;;;;;;13.23;10.50;;;;;;;5.18;100.00;100808.97;5062813;28;20264;-32
2020/12/26 11:22:50;;;;;;;11.00;9.53;;;;;;;5.29;100.00;100806.63;5059850;28;20197;-33
2020/12/26 11:25:38;;;;;;;15.93;10.50;;;;;;;4.76;100.00;100798.59;5058783;28;20863;-30
2020/12/26 11:28:24;;;;;;;11.20;10.10;;;;;;;5.27;100.00;100786.06;5058055;28;20200;-33
2020/12/26 11:31:10;;;;;;;15.93;11.00;;;;;;;5.41;100.00;100776.94;5058016;28;20263;-32
2020/12/26 11:33:56;;;;;;;11.67;10.47;;;;;;;5.27;100.00;100772.38;5058280;28;20207;-32
2020/12/26 11:36:44;;;;;;;13.30;10.90;;;;;;;5.20;100.00;100771.38;5058154;28;20616;-32
2020/12/26 11:39:30;;;;;;;14.40;10.33;;;;;;;5.10;100.00;100772.88;5059293;28;20200;-33
2020/12/26 11:42:19;;;;;;;13.47;10.30;;;;;;;5.36;100.00;100762.31;5057916;28;20200;-32
2020/12/26 11:45:09;;;;;;;12.07;9.43;;;;;;;5.27;100.00;100744.16;5061565;28;20308;-32
2020/12/26 11:48:05;;;;;;;15.27;10.57;;;;;;;4.83;100.00;100734.69;5059472;28;20208;-32
2020/12/26 11:50:51;;;;;;;14.73;10.10;;;;;;;4.99;100.00;100732.47;5045427;28;20290;-30
2020/12/26 11:53:38;;;;;;;11.83;10.10;;;;;;;5.23;100.00;100743.22;5060972;28;20246;-32
2020/12/26 11:56:27;;;;;;;13.03;9.33;;;;;;;5.13;100.00;100737.06;5058356;28;20246;-30
2020/12/26 11:59:14;;;;;;;10.83;9.43;;;;;;;5.14;100.00;100728.53;5057997;28;20601;-32
2020/12/26 12:02:07;;;;;;;12.40;10.53;;;;;;;5.30;100.00;100724.56;5043009;28;20680;-32
2020/12/26 12:04:58;;;;;;;18.30;10.03;;;;;;;5.34;100.00;100720.38;5058435;28;20552;-32
2020/12/26 12:07:46;;;;;;;13.60;9.37;;;;;;;5.90;100.00;100725.72;5064064;28;20251;-32
2020/12/26 12:10:33;;;;;;;13.37;8.97;;;;;;;5.46;100.00;100718.03;5059214;28;20196;-31
2020/12/26 12:13:23;;;;;;;11.27;9.50;;;;;;;5.17;100.00;100712.34;5057860;28;20208;-31
2020/12/26 12:16:19;;;;;;;15.70;9.37;;;;;;;5.70;100.00;100702.25;5059788;28;20204;-32
2020/12/26 12:19:13;;;;;;;12.37;9.10;;;;;;;5.14;100.00;100686.66;5056459;28;20263;-31
2020/12/26 12:22:05;;;;;;;17.83;9.07;;;;;;;5.11;100.00;100679.75;5058359;28;20196;-31
2020/12/26 12:24:58;;;;;;;15.10;9.33;;;;;;;5.18;100.00;100668.78;5058589;28;20301;-31
2020/12/26 12:27:44;;;;;;;8.80;7.87;;;;;;;5.06;100.00;100662.53;5058233;28;20948;-31
2020/12/26 12:30:32;;;;;;;15.40;9.07;;;;;;;5.01;100.00;100664.13;5057930;28;20192;-31
2020/12/26 12:33:19;;;;;;;9.77;7.37;;;;;;;5.43;100.00;100664.09;5058897;28;20491;-31
2020/12/26 12:36:05;;;;;;;8.63;6.97;;;;;;;5.56;100.00;100662.66;5058561;28;20201;-31
2020/12/26 12:38:51;;;;;;;14.50;7.90;;;;;;;5.28;100.00;100656.13;5058784;28;20204;-31
2020/12/26 12:41:37;;;;;;;9.93;6.67;;;;;;;5.54;100.00;100655.78;5045293;28;20209;-31
2020/12/26 12:44:32;;;;;;;8.97;6.93;;;;;;;5.40;100.00;100646.94;5041750;28;20229;-31
2020/12/26 12:47:22;;;;;;;10.30;6.43;;;;;;;5.29;100.00;100648.47;5050729;28;20200;-32